createdAt,value
2023-08-17T00:01:35.443Z,46.30
2023-08-17T00:04:20.695Z,40.05
2023-08-17T00:07:01.250Z,40.60
2023-08-17T00:09:48.527Z,38.85
2023-08-17T00:12:39.400Z,52.70
2023-08-17T00:15:22.654Z,43.78
2023-08-17T00:18:08.263Z,50.80
2023-08-17T00:20:49.580Z,52.03
2023-08-17T00:23:53.985Z,61.30
2023-08-17T00:26:43.766Z,43.72
2023-08-17T00:29:26.672Z,45.80
2023-08-17T00:32:05.547Z,53.58
2023-08-17T00:34:42.554Z,47.05
2023-08-17T00:37:24.779Z,41.85
2023-08-17T00:40:00.592Z,42.83
2023-08-17T00:42:50.479Z,40.35
2023-08-17T00:45:32.227Z,55.72
2023-08-17T00:48:17.274Z,46.00
2023-08-17T00:51:07.450Z,44.65
2023-08-17T00:53:54.418Z,48.33
2023-08-17T00:56:34.165Z,39.35
2023-08-17T00:59:23.098Z,147.43
2023-08-17T01:02:00.245Z,170.25
2023-08-17T01:04:47.861Z,174.40
2023-08-17T01:07:24.381Z,175.90
2023-08-17T01:10:11.528Z,156.07
2023-08-17T01:13:06.836Z,167.30
2023-08-17T01:15:56.436Z,172.15
2023-08-17T01:18:46.766Z,177.70
2023-08-17T01:21:28.220Z,164.80
2023-08-17T01:24:12.714Z,179.32
2023-08-17T01:26:49.626Z,186.10
2023-08-17T01:29:34.624Z,192.63
2023-08-17T01:32:28.731Z,182.93
2023-08-17T01:35:18.563Z,201.27
2023-08-17T01:38:08.964Z,197.25
2023-08-17T01:40:59.460Z,167.73
2023-08-17T01:43:41.488Z,52.00
2023-08-17T01:46:20.960Z,53.72
2023-08-17T01:49:02.446Z,53.00
2023-08-17T01:51:39.545Z,52.67
2023-08-17T01:54:19.401Z,50.35
2023-08-17T01:57:08.066Z,50.60
2023-08-17T01:59:55.892Z,54.80
2023-08-17T02:02:40.863Z,43.00
2023-08-17T02:05:20.548Z,43.05
2023-08-17T02:08:17.688Z,44.92
2023-08-17T02:11:02.099Z,60.65
2023-08-17T02:16:24.204Z,39.67
2023-08-17T02:19:04.124Z,50.20
2023-08-17T02:21:42.890Z,47.80
2023-08-17T02:24:30.660Z,51.08
2023-08-17T02:27:17.474Z,53.85
2023-08-17T02:30:00.191Z,51.33
2023-08-17T02:32:37.565Z,60.63
2023-08-17T02:35:25.143Z,60.80
2023-08-17T02:38:01.296Z,53.22
2023-08-17T02:40:37.360Z,56.28
2023-08-17T02:43:36.694Z,65.55
2023-08-17T02:46:45.357Z,50.80
2023-08-17T02:49:32.137Z,51.38
2023-08-17T02:52:13.454Z,56.38
2023-08-17T02:55:03.298Z,61.03
2023-08-17T02:57:39.291Z,60.65
2023-08-17T03:00:20.576Z,67.53
2023-08-17T03:05:51.259Z,66.47
2023-08-17T03:08:32.495Z,46.78
2023-08-17T03:11:10.699Z,60.05
2023-08-17T03:13:57.007Z,56.10
2023-08-17T03:16:33.561Z,53.40
2023-08-17T03:19:15.382Z,63.22
2023-08-17T03:22:06.077Z,63.00
2023-08-17T03:24:44.949Z,76.05
2023-08-17T03:27:28.696Z,73.53
2023-08-17T03:30:22.522Z,66.25
2023-08-17T03:33:01.355Z,83.35
2023-08-17T03:35:41.197Z,77.05
2023-08-17T03:38:22.260Z,72.25
2023-08-17T03:41:09.666Z,71.43
2023-08-17T03:43:56.726Z,77.45
2023-08-17T03:46:43.228Z,80.38
2023-08-17T03:49:20.122Z,77.53
2023-08-17T03:52:13.273Z,71.00
2023-08-17T03:54:58.712Z,77.32
2023-08-17T03:57:39.612Z,82.57
2023-08-17T04:00:35.102Z,82.05
2023-08-17T04:03:18.030Z,76.13
2023-08-17T04:05:57.755Z,74.30
2023-08-17T04:08:41.298Z,76.97
2023-08-17T04:11:17.960Z,90.13
2023-08-17T04:14:04.286Z,94.28
2023-08-17T04:16:43.182Z,97.03
2023-08-17T04:19:33.563Z,103.72
2023-08-17T04:22:14.191Z,96.78
2023-08-17T04:24:58.856Z,107.72
2023-08-17T04:27:41.360Z,106.15
2023-08-17T04:30:23.267Z,106.88
2023-08-17T04:32:59.804Z,100.78
2023-08-17T04:35:42.001Z,152.93
2023-08-17T04:38:20.473Z,158.90
2023-08-17T04:41:00.093Z,159.73
2023-08-17T04:43:38.041Z,143.18
2023-08-17T04:49:13.609Z,153.27
2023-08-17T04:52:02.180Z,146.25
2023-08-17T04:54:49.589Z,145.70
2023-08-17T04:57:32.274Z,139.98
2023-08-17T05:03:09.794Z,160.48
2023-08-17T05:05:57.937Z,201.13
2023-08-17T05:08:39.609Z,213.95
2023-08-17T05:11:41.838Z,228.00
2023-08-17T05:14:38.983Z,219.88
2023-08-17T05:17:21.784Z,235.48
2023-08-17T05:20:13.014Z,236.90
2023-08-17T05:23:04.602Z,236.45
2023-08-17T05:25:51.682Z,251.65
2023-08-17T05:28:30.404Z,252.85
2023-08-17T05:31:22.973Z,260.85
2023-08-17T05:34:15.866Z,260.05
2023-08-17T05:37:05.210Z,262.27
2023-08-17T05:39:59.483Z,280.48
2023-08-17T05:42:35.510Z,248.25
2023-08-17T05:45:29.636Z,298.15
2023-08-17T05:48:48.565Z,249.20
2023-08-17T05:51:29.713Z,260.25
2023-08-17T05:54:06.440Z,292.88
2023-08-17T05:57:06.253Z,284.77
2023-08-17T06:00:21.675Z,285.48
2023-08-17T06:03:06.141Z,291.58
2023-08-17T06:06:09.947Z,298.83
2023-08-17T06:08:53.524Z,309.02
2023-08-17T06:11:39.053Z,290.52
2023-08-17T06:14:30.622Z,262.83
2023-08-17T06:17:10.981Z,269.92
2023-08-17T06:20:03.014Z,274.67
2023-08-17T06:23:00.836Z,275.80
2023-08-17T06:25:46.582Z,273.27
2023-08-17T06:31:16.473Z,271.42
2023-08-17T06:33:54.989Z,286.25
2023-08-17T06:36:56.131Z,291.10
2023-08-17T06:39:51.844Z,282.05
2023-08-17T06:42:31.100Z,305.45
2023-08-17T06:45:24.350Z,333.63
2023-08-17T06:48:21.461Z,350.70
2023-08-17T06:50:59.147Z,287.90
2023-08-17T06:53:41.456Z,300.50
2023-08-17T06:56:26.451Z,388.58
2023-08-17T06:59:03.008Z,397.33
2023-08-17T07:01:44.894Z,377.52
2023-08-17T07:04:26.971Z,384.05
2023-08-17T07:07:21.248Z,363.80
2023-08-17T07:10:03.082Z,272.35
2023-08-17T07:12:45.826Z,291.02
2023-08-17T07:15:36.596Z,277.83
2023-08-17T07:18:18.503Z,286.50
2023-08-17T07:23:57.496Z,362.55
2023-08-17T07:26:49.967Z,305.75
2023-08-17T07:29:49.022Z,297.73
2023-08-17T07:32:31.784Z,304.63
2023-08-17T07:35:13.214Z,318.05
2023-08-17T07:38:07.285Z,313.40
2023-08-17T07:41:03.686Z,299.35
2023-08-17T07:43:57.974Z,301.63
2023-08-17T07:50:00.737Z,277.48
2023-08-17T07:52:53.605Z,294.45
2023-08-17T07:55:43.585Z,297.33
2023-08-17T07:58:31.537Z,305.85
2023-08-17T08:01:14.261Z,291.13
2023-08-17T08:04:21.407Z,293.75
2023-08-17T08:07:01.728Z,297.05
2023-08-17T08:09:55.367Z,320.98
2023-08-17T08:12:40.576Z,304.25
2023-08-17T08:15:32.218Z,315.17
2023-08-17T08:18:20.040Z,295.58
2023-08-17T08:21:07.252Z,314.30
2023-08-17T08:23:47.716Z,326.58
2023-08-17T08:26:30.595Z,335.02
2023-08-17T08:29:07.231Z,303.38
2023-08-17T08:31:46.179Z,297.98
2023-08-17T08:34:30.088Z,306.23
2023-08-17T08:37:16.860Z,328.25
2023-08-17T08:40:04.852Z,328.35
2023-08-17T08:42:44.366Z,304.80
2023-08-17T08:45:20.200Z,319.10
2023-08-17T08:47:57.248Z,311.70
2023-08-17T08:50:48.664Z,318.05
2023-08-17T08:53:55.777Z,314.58
2023-08-17T08:56:34.582Z,300.20
2023-08-17T08:59:11.822Z,318.08
2023-08-17T09:01:55.267Z,288.75
2023-08-17T09:04:35.605Z,322.85
2023-08-17T09:07:15.690Z,304.23
2023-08-17T09:10:12.052Z,306.50
2023-08-17T09:12:51.896Z,308.92
2023-08-17T09:15:34.262Z,322.85
2023-08-17T09:18:16.407Z,305.02
2023-08-17T09:21:10.126Z,312.73
2023-08-17T09:24:18.203Z,308.55
2023-08-17T09:27:10.826Z,329.63
2023-08-17T09:30:13.410Z,344.17
2023-08-17T09:32:50.578Z,338.02
2023-08-17T09:35:28.075Z,325.08
2023-08-17T09:38:10.131Z,325.42
2023-08-17T09:40:52.032Z,353.58
2023-08-17T09:43:37.650Z,345.15
2023-08-17T09:46:19.537Z,313.23
2023-08-17T09:48:59.057Z,306.80
2023-08-17T09:51:43.215Z,331.85
2023-08-17T09:54:29.935Z,348.15
2023-08-17T09:57:22.590Z,371.95
2023-08-17T10:00:05.382Z,351.93
2023-08-17T10:02:47.972Z,395.42
2023-08-17T10:05:30.826Z,396.67
2023-08-17T10:08:09.784Z,416.67
2023-08-17T10:10:57.756Z,418.17
2023-08-17T10:13:45.789Z,413.77
2023-08-17T10:16:53.437Z,413.73
2023-08-17T10:19:58.781Z,404.50
2023-08-17T10:22:43.722Z,401.52
2023-08-17T10:25:20.810Z,401.83
2023-08-17T10:28:14.721Z,402.65
2023-08-17T10:30:51.015Z,403.15
2023-08-17T10:33:36.939Z,394.42
2023-08-17T10:36:34.044Z,404.02
2023-08-17T10:39:39.708Z,412.67
2023-08-17T10:42:22.417Z,400.10
2023-08-17T10:45:00.311Z,406.00
2023-08-17T10:47:41.632Z,398.75
2023-08-17T10:50:33.238Z,412.02
2023-08-17T10:53:16.284Z,411.60
2023-08-17T10:56:06.169Z,406.15
2023-08-17T10:58:55.809Z,399.35
2023-08-17T11:01:51.006Z,393.85
2023-08-17T11:04:34.288Z,393.27
2023-08-17T11:10:52.720Z,379.75
2023-08-17T11:13:32.939Z,372.90
2023-08-17T11:16:33.459Z,379.33
2023-08-17T11:19:15.909Z,390.00
2023-08-17T11:21:59.348Z,386.38
2023-08-17T11:24:45.718Z,375.25
2023-08-17T11:27:27.781Z,375.13
2023-08-17T11:30:20.756Z,381.52
2023-08-17T11:33:08.675Z,379.42
2023-08-17T11:35:52.437Z,376.17
2023-08-17T11:38:28.643Z,382.77
2023-08-17T11:41:22.289Z,361.63
2023-08-17T11:44:02.610Z,379.88
2023-08-17T11:50:19.937Z,371.35
2023-08-17T11:53:02.683Z,365.50
2023-08-17T11:55:40.832Z,372.67
2023-08-17T11:58:25.048Z,373.73
2023-08-17T12:04:19.822Z,348.98
2023-08-17T12:06:58.616Z,336.60
2023-08-17T12:09:48.783Z,347.20
2023-08-17T12:12:34.540Z,352.83
2023-08-17T12:15:44.318Z,346.33
2023-08-17T12:18:26.840Z,358.05
2023-08-17T12:21:10.436Z,351.60
2023-08-17T12:26:44.440Z,336.48
2023-08-17T12:29:23.563Z,353.20
2023-08-17T12:32:26.384Z,351.75
2023-08-17T12:35:16.844Z,353.35
2023-08-17T12:37:54.197Z,346.15
2023-08-17T12:40:55.672Z,344.58
2023-08-17T12:43:41.362Z,348.20
2023-08-17T12:46:20.038Z,349.55
2023-08-17T12:49:22.235Z,339.63
2023-08-17T12:52:11.830Z,347.65
2023-08-17T12:54:52.986Z,330.63
2023-08-17T13:00:34.429Z,382.48
2023-08-17T13:03:15.977Z,350.80
2023-08-17T13:06:06.409Z,357.48
2023-08-17T13:08:42.158Z,370.27
2023-08-17T13:11:34.645Z,324.88
2023-08-17T13:14:11.882Z,334.67
2023-08-17T13:16:54.632Z,350.33
2023-08-17T13:19:34.018Z,348.10
2023-08-17T13:22:30.038Z,353.50
2023-08-17T13:27:56.595Z,325.50
2023-08-17T13:33:29.557Z,332.60
2023-08-17T13:36:33.754Z,326.17
2023-08-17T13:39:30.552Z,325.23
2023-08-17T13:42:13.047Z,327.35
2023-08-17T13:44:48.707Z,333.05
2023-08-17T13:47:38.392Z,339.08
2023-08-17T13:50:33.411Z,325.20
2023-08-17T13:53:16.629Z,324.95
2023-08-17T13:56:11.414Z,319.52
2023-08-17T13:58:50.859Z,313.83
2023-08-17T14:01:37.168Z,313.67
2023-08-17T14:04:22.729Z,315.98
2023-08-17T14:07:06.384Z,311.67
2023-08-17T14:09:57.898Z,324.80
2023-08-17T14:13:04.768Z,319.88
2023-08-17T14:15:48.713Z,310.08
2023-08-17T14:18:29.941Z,319.17
2023-08-17T14:21:07.558Z,320.23
2023-08-17T14:23:47.489Z,319.35
2023-08-17T14:26:35.176Z,329.02
2023-08-17T14:29:35.944Z,313.73
2023-08-17T14:32:18.183Z,312.20
2023-08-17T14:34:55.260Z,318.75
2023-08-17T14:37:56.959Z,311.05
2023-08-17T14:41:05.841Z,308.50
2023-08-17T14:43:43.515Z,312.42
2023-08-17T14:46:21.542Z,316.65
2023-08-17T14:49:06.306Z,312.40
2023-08-17T14:51:50.874Z,317.02
2023-08-17T14:57:23.259Z,315.77
2023-08-17T15:00:03.734Z,318.85
2023-08-17T15:02:46.881Z,318.88
2023-08-17T15:05:28.851Z,318.90
2023-08-17T15:08:11.089Z,321.98
2023-08-17T15:10:47.571Z,331.90
2023-08-17T15:13:25.335Z,306.65
2023-08-17T15:16:16.036Z,309.48
2023-08-17T15:19:08.660Z,314.08
2023-08-17T15:21:43.934Z,316.30
2023-08-17T15:24:30.642Z,311.42
2023-08-17T15:27:07.355Z,302.25
2023-08-17T15:30:02.561Z,303.02
2023-08-17T15:33:09.059Z,318.80
2023-08-17T15:35:51.163Z,319.02
2023-08-17T15:38:32.419Z,319.15
2023-08-17T15:41:10.546Z,318.90
2023-08-17T15:43:49.089Z,302.15
2023-08-17T15:46:31.407Z,305.02
2023-08-17T15:52:17.183Z,310.33
2023-08-17T15:54:54.450Z,303.75
2023-08-17T15:57:36.731Z,297.60
2023-08-17T16:00:35.621Z,309.23
2023-08-17T16:03:17.458Z,299.30
2023-08-17T16:05:57.780Z,296.50
2023-08-17T16:08:48.625Z,308.92
2023-08-17T16:14:18.971Z,300.27
2023-08-17T16:17:08.501Z,288.27
2023-08-17T16:19:46.964Z,295.77
2023-08-17T16:22:25.978Z,294.92
2023-08-17T16:25:12.216Z,287.48
2023-08-17T16:28:08.980Z,299.92
2023-08-17T16:30:48.774Z,301.83
2023-08-17T16:33:24.743Z,301.77
2023-08-17T16:36:04.746Z,298.20
2023-08-17T16:38:42.337Z,303.48
2023-08-17T16:44:15.852Z,300.55
2023-08-17T16:46:55.071Z,286.38
2023-08-17T16:49:30.953Z,295.73
2023-08-17T16:52:11.806Z,290.95
2023-08-17T16:54:50.206Z,295.20
2023-08-17T16:57:32.259Z,294.83
2023-08-17T17:00:12.532Z,283.83
2023-08-17T17:05:32.101Z,279.10
2023-08-17T17:08:07.844Z,290.80
2023-08-17T17:11:02.037Z,290.42
2023-08-17T17:13:46.772Z,291.27
2023-08-17T17:16:24.782Z,274.25
2023-08-17T17:19:00.433Z,281.10
2023-08-17T17:21:37.023Z,280.67
2023-08-17T17:24:13.958Z,286.95
2023-08-17T17:26:54.104Z,289.08
2023-08-17T17:29:34.223Z,287.75
2023-08-17T17:32:09.524Z,291.58
2023-08-17T17:34:44.708Z,281.25
2023-08-17T17:37:26.953Z,274.63
2023-08-17T17:40:02.564Z,277.95
2023-08-17T17:42:39.426Z,269.45
2023-08-17T17:45:17.460Z,276.55
2023-08-17T17:47:56.471Z,272.08
2023-08-17T17:50:31.654Z,275.52
2023-08-17T17:53:11.065Z,272.20
2023-08-17T17:55:50.584Z,266.73
2023-08-17T17:58:27.502Z,266.35
2023-08-17T18:01:05.813Z,274.75
2023-08-17T18:03:43.504Z,269.85
2023-08-17T18:06:24.003Z,266.00
2023-08-17T18:09:02.355Z,270.83
2023-08-17T18:11:40.796Z,288.73
2023-08-17T18:14:20.604Z,265.58
2023-08-17T18:16:58.411Z,266.25
2023-08-17T18:19:35.696Z,259.33
2023-08-17T18:22:11.047Z,265.00
2023-08-17T18:25:02.049Z,261.92
2023-08-17T18:27:42.780Z,269.85
2023-08-17T18:30:18.139Z,265.10
2023-08-17T18:32:57.260Z,275.55
2023-08-17T18:35:32.745Z,262.25
2023-08-17T18:38:15.935Z,272.50
2023-08-17T18:40:54.269Z,270.42
2023-08-17T18:43:30.150Z,278.52
2023-08-17T18:46:05.314Z,277.33
2023-08-17T18:48:43.856Z,273.35
2023-08-17T18:51:19.217Z,259.33
2023-08-17T18:53:55.827Z,258.70
2023-08-17T18:56:30.684Z,258.95
2023-08-17T18:59:06.003Z,256.27
2023-08-17T19:01:41.180Z,260.65
2023-08-17T19:04:19.750Z,261.80
2023-08-17T19:06:56.170Z,254.77
2023-08-17T19:09:31.240Z,267.67
2023-08-17T19:12:06.380Z,264.00
2023-08-17T19:14:42.168Z,261.42
2023-08-17T19:17:17.156Z,257.15
2023-08-17T19:19:56.787Z,259.80
2023-08-17T19:22:32.104Z,257.65
2023-08-17T19:25:08.145Z,260.50
2023-08-17T19:27:43.047Z,264.60
2023-08-17T19:30:22.100Z,262.77
2023-08-17T19:33:13.646Z,262.83
2023-08-17T19:35:52.260Z,264.17
2023-08-17T19:38:33.498Z,265.77
2023-08-17T19:41:10.020Z,262.92
2023-08-17T19:43:45.468Z,285.17
2023-08-17T19:46:20.762Z,269.70
2023-08-17T19:48:56.494Z,266.05
2023-08-17T19:51:34.428Z,275.38
2023-08-17T19:54:10.048Z,280.23
2023-08-17T19:56:48.526Z,274.73
2023-08-17T19:59:24.879Z,288.65
2023-08-17T20:01:59.690Z,266.33
2023-08-17T20:04:35.574Z,265.90
2023-08-17T20:07:14.033Z,257.92
2023-08-17T20:09:49.622Z,254.50
2023-08-17T20:12:25.753Z,266.08
2023-08-17T20:15:00.737Z,265.88
2023-08-17T20:17:36.634Z,282.13
2023-08-17T20:20:18.404Z,293.70
2023-08-17T20:22:56.827Z,311.17
2023-08-17T20:25:31.914Z,292.33
2023-08-17T20:28:12.310Z,277.77
2023-08-17T20:30:50.730Z,275.98
2023-08-17T20:33:25.522Z,286.60
2023-08-17T20:36:01.827Z,286.23
2023-08-17T20:38:41.021Z,290.25
2023-08-17T20:41:16.236Z,277.77
2023-08-17T20:43:55.638Z,285.02
2023-08-17T20:46:34.527Z,285.60
2023-08-17T20:49:10.612Z,271.55
2023-08-17T20:51:45.618Z,273.83
2023-08-17T20:54:24.613Z,275.95
2023-08-17T20:56:59.487Z,281.17
2023-08-17T20:59:34.493Z,287.60
2023-08-17T21:02:15.063Z,281.20
2023-08-17T21:04:50.286Z,257.60
2023-08-17T21:07:27.604Z,261.10
2023-08-17T21:10:08.259Z,263.08
2023-08-17T21:12:44.120Z,255.77
2023-08-17T21:15:20.907Z,258.65
2023-08-17T21:17:56.449Z,253.25
2023-08-17T21:20:33.980Z,247.60
2023-08-17T21:23:09.619Z,254.60
2023-08-17T21:25:54.760Z,262.02
2023-08-17T21:28:30.060Z,259.15
2023-08-17T21:31:09.495Z,257.77
2023-08-17T21:33:45.065Z,258.73
2023-08-17T21:36:20.596Z,251.70
2023-08-17T21:38:55.394Z,251.05
2023-08-17T21:41:38.011Z,255.55
2023-08-17T21:44:13.725Z,249.10
2023-08-17T21:46:50.532Z,244.35
2023-08-17T21:49:25.948Z,256.80
2023-08-17T21:52:01.688Z,243.27
2023-08-17T21:54:37.150Z,249.63
2023-08-17T21:57:15.953Z,240.75
2023-08-17T21:59:53.408Z,239.77
2023-08-17T22:02:28.870Z,251.43
2023-08-17T22:05:10.160Z,247.57
2023-08-17T22:07:46.077Z,252.27
2023-08-17T22:10:25.394Z,237.35
2023-08-17T22:13:04.178Z,234.70
2023-08-17T22:15:41.489Z,237.50
2023-08-17T22:18:17.344Z,249.93
2023-08-17T22:20:52.857Z,256.02
2023-08-17T22:23:31.347Z,249.07
2023-08-17T22:26:07.214Z,244.27
2023-08-17T22:28:53.379Z,249.00
2023-08-17T22:31:32.974Z,247.02
2023-08-17T22:34:12.069Z,247.55
2023-08-17T22:36:58.429Z,248.57
2023-08-17T22:39:51.133Z,257.38
2023-08-17T22:42:30.907Z,256.90
2023-08-17T22:45:16.407Z,249.13
2023-08-17T22:47:55.953Z,235.43
2023-08-17T22:50:32.029Z,245.98
2023-08-17T22:53:10.648Z,256.77
2023-08-17T22:55:49.226Z,257.73
2023-08-17T22:58:25.835Z,236.25
2023-08-17T23:01:10.793Z,250.68
2023-08-17T23:03:59.658Z,247.80
2023-08-17T23:06:49.247Z,241.27
2023-08-17T23:09:28.514Z,248.25
2023-08-17T23:12:07.598Z,255.68
2023-08-17T23:15:01.072Z,252.18
2023-08-17T23:17:46.960Z,232.93
2023-08-17T23:20:39.257Z,240.27
2023-08-17T23:23:21.042Z,251.43
2023-08-17T23:25:56.647Z,229.52
2023-08-17T23:28:35.733Z,242.75
2023-08-17T23:31:13.150Z,243.38
2023-08-17T23:34:01.062Z,250.13
2023-08-17T23:36:48.562Z,235.10
2023-08-17T23:39:31.540Z,233.38
2023-08-17T23:42:08.347Z,237.00
2023-08-17T23:44:50.216Z,232.70
2023-08-17T23:47:34.096Z,238.35
2023-08-17T23:50:13.856Z,258.35
2023-08-17T23:52:57.866Z,243.48
2023-08-17T23:55:47.903Z,256.75
2023-08-17T23:58:26.984Z,238.48
